createdAt,value
2022-09-24T00:01:29.261Z,96894.81
2022-09-24T00:04:01.779Z,96897.88
2022-09-24T00:06:29.933Z,96889.19
2022-09-24T00:08:57.739Z,96891.34
2022-09-24T00:11:25.742Z,96887.19
2022-09-24T00:13:53.418Z,96875.84
2022-09-24T00:16:22.402Z,96871.94
2022-09-24T00:18:49.076Z,96883.09
2022-09-24T00:21:17.039Z,96873.22
2022-09-24T00:23:43.853Z,96878.28
2022-09-24T00:26:30.547Z,96876.47
2022-09-24T00:28:57.792Z,96871.59
2022-09-24T00:31:25.319Z,96870.94
2022-09-24T00:33:52.443Z,96874.56
2022-09-24T00:36:20.578Z,96873.94
2022-09-24T00:38:52.383Z,96868.38
2022-09-24T00:41:20.363Z,96866.06
2022-09-24T00:43:48.529Z,96872.59
2022-09-24T00:46:40.220Z,96872.59
2022-09-24T00:49:13.858Z,96871.19
2022-09-24T00:51:41.901Z,96871.19
2022-09-24T00:54:11.102Z,96871.19
2022-09-24T00:56:39.919Z,96868.69
2022-09-24T00:59:08.517Z,96867.31
2022-09-24T01:01:35.204Z,96875.31
2022-09-24T01:04:02.849Z,96872.22
2022-09-24T01:06:29.485Z,96866.78
2022-09-24T01:08:57.294Z,96868.84
2022-09-24T01:11:38.432Z,96861.78
2022-09-24T01:14:23.342Z,96866.97
2022-09-24T01:17:23.964Z,96867.50
2022-09-24T01:20:28.188Z,96864.41
2022-09-24T01:23:03.524Z,96857.53
2022-09-24T01:25:42.122Z,96859.25
2022-09-24T01:28:36.118Z,96850.38
2022-09-24T01:31:14.938Z,96848.53
2022-09-24T01:33:43.002Z,96848.19
2022-09-24T01:36:09.797Z,96848.81
2022-09-24T01:38:40.889Z,96848.63
2022-09-24T01:41:09.753Z,96839.47
2022-09-24T01:43:36.991Z,96839.66
2022-09-24T01:46:06.052Z,96835.41
2022-09-24T01:48:39.626Z,96839.22
2022-09-24T01:51:26.084Z,96834.22
2022-09-24T01:53:58.103Z,96812.53
2022-09-24T01:56:29.970Z,96825.06
2022-09-24T01:59:07.029Z,96816.00
2022-09-24T02:01:56.695Z,96815.63
2022-09-24T02:04:25.986Z,96811.72
2022-09-24T02:07:02.534Z,96810.34
2022-09-24T02:09:34.829Z,96809.34
2022-09-24T02:12:07.155Z,96810.19
2022-09-24T02:14:38.543Z,96807.19
2022-09-24T02:17:04.939Z,96810.66
2022-09-24T02:19:34.760Z,96805.91
2022-09-24T02:22:01.356Z,96801.03
2022-09-24T02:24:34.760Z,96805.03
2022-09-24T02:27:01.364Z,96805.38
2022-09-24T02:29:27.923Z,96805.38
2022-09-24T02:31:56.308Z,96806.19
2022-09-24T02:34:27.420Z,96803.75
2022-09-24T02:37:15.113Z,96804.19
2022-09-24T02:39:42.178Z,96807.38
2022-09-24T02:42:11.056Z,96804.13
2022-09-24T02:44:37.617Z,96806.19
2022-09-24T02:47:04.651Z,96803.94
2022-09-24T02:49:31.226Z,96801.13
2022-09-24T02:51:57.753Z,96801.75
2022-09-24T02:54:25.227Z,96798.94
2022-09-24T02:56:52.214Z,96797.88
2022-09-24T02:59:19.328Z,96801.66
2022-09-24T03:01:46.473Z,96798.88
2022-09-24T03:04:13.725Z,96810.53
2022-09-24T03:06:40.269Z,96797.19
2022-09-24T03:09:06.842Z,96810.19
2022-09-24T03:11:33.998Z,96799.31
2022-09-24T03:14:00.595Z,96797.31
2022-09-24T03:16:27.264Z,96791.06
2022-09-24T03:18:53.916Z,96786.59
2022-09-24T03:21:22.133Z,96794.31
2022-09-24T03:23:48.737Z,96790.13
2022-09-24T03:26:16.037Z,96788.63
2022-09-24T03:28:42.598Z,96783.78
2022-09-24T03:31:09.730Z,96785.25
2022-09-24T03:33:44.158Z,96782.25
2022-09-24T03:36:22.851Z,96781.34
2022-09-24T03:38:51.409Z,96778.78
2022-09-24T03:41:18.156Z,96775.28
2022-09-24T03:43:44.912Z,96775.81
2022-09-24T03:46:12.655Z,96777.81
2022-09-24T03:48:40.233Z,96765.19
2022-09-24T03:51:13.892Z,96766.38
2022-09-24T03:53:40.662Z,96773.63
2022-09-24T03:56:08.639Z,96775.63
2022-09-24T03:58:38.892Z,96774.81
2022-09-24T04:01:07.232Z,96771.19
2022-09-24T04:03:34.245Z,96774.91
2022-09-24T04:06:00.839Z,96776.16
2022-09-24T04:08:27.588Z,96769.56
2022-09-24T04:10:55.428Z,96775.47
2022-09-24T04:13:22.388Z,96776.28
2022-09-24T04:15:50.389Z,96776.53
2022-09-24T04:18:17.585Z,96770.66
2022-09-24T04:20:44.278Z,96765.38
2022-09-24T04:23:11.322Z,96764.56
2022-09-24T04:25:37.996Z,96767.47
2022-09-24T04:28:06.579Z,96765.00
2022-09-24T04:30:34.540Z,96763.75
2022-09-24T04:33:02.661Z,96762.88
2022-09-24T04:35:31.771Z,96768.47
2022-09-24T04:37:59.398Z,96766.75
2022-09-24T04:40:27.025Z,96764.75
2022-09-24T04:42:54.043Z,96766.91
2022-09-24T04:45:21.094Z,96772.63
2022-09-24T04:47:52.605Z,96770.19
2022-09-24T04:50:19.653Z,96753.22
2022-09-24T04:52:46.296Z,96769.94
2022-09-24T04:55:12.841Z,96771.19
2022-09-24T04:57:41.183Z,96767.56
2022-09-24T05:00:11.333Z,96769.81
2022-09-24T05:02:38.025Z,96768.47
2022-09-24T05:05:04.989Z,96769.75
2022-09-24T05:07:31.570Z,96774.28
2022-09-24T05:09:58.125Z,96769.91
2022-09-24T05:12:24.693Z,96766.09
2022-09-24T05:14:51.213Z,96765.38
2022-09-24T05:17:17.757Z,96764.19
2022-09-24T05:19:44.305Z,96757.75
2022-09-24T05:22:10.843Z,96760.19
2022-09-24T05:24:37.359Z,96758.13
2022-09-24T05:27:12.931Z,96760.56
2022-09-24T05:29:41.029Z,96758.38
2022-09-24T05:32:12.614Z,96745.22
2022-09-24T05:34:39.156Z,96751.13
2022-09-24T05:37:05.743Z,96765.91
2022-09-24T05:39:34.202Z,96752.38
2022-09-24T05:42:03.719Z,96753.38
2022-09-24T05:44:33.308Z,96756.13
2022-09-24T05:47:00.185Z,96759.38
2022-09-24T05:49:26.758Z,96752.00
2022-09-24T05:51:53.337Z,96753.53
2022-09-24T05:54:19.955Z,96759.28
2022-09-24T05:56:47.368Z,96759.38
2022-09-24T05:59:13.899Z,96757.44
2022-09-24T06:01:40.801Z,96762.22
2022-09-24T06:04:09.165Z,96759.25
2022-09-24T06:06:35.981Z,96752.88
2022-09-24T06:09:02.681Z,96758.19
2022-09-24T06:11:39.639Z,96756.44
2022-09-24T06:14:06.864Z,96759.53
2022-09-24T06:16:34.306Z,96752.69
2022-09-24T06:19:01.097Z,96749.50
2022-09-24T06:21:27.799Z,96745.47
2022-09-24T06:23:54.391Z,96752.59
2022-09-24T06:26:21.373Z,96760.13
2022-09-24T06:28:47.942Z,96751.03
2022-09-24T06:31:14.596Z,96757.75
2022-09-24T06:33:41.191Z,96752.50
2022-09-24T06:36:08.144Z,96745.81
2022-09-24T06:38:35.513Z,96754.22
2022-09-24T06:41:05.112Z,96766.69
2022-09-24T06:43:32.809Z,96764.09
2022-09-24T06:46:00.247Z,96767.88
2022-09-24T06:48:28.108Z,96771.16
2022-09-24T06:50:56.373Z,96774.41
2022-09-24T06:53:23.260Z,96769.56
2022-09-24T06:55:49.761Z,96774.91
2022-09-24T06:58:20.078Z,96771.28
2022-09-24T07:00:54.223Z,96772.34
2022-09-24T07:03:21.786Z,96774.59
2022-09-24T07:05:48.633Z,96771.94
2022-09-24T07:08:15.619Z,96771.53
2022-09-24T07:10:44.166Z,96780.28
2022-09-24T07:13:12.700Z,96779.84
2022-09-24T07:15:40.118Z,96781.06
2022-09-24T07:18:06.847Z,96786.13
2022-09-24T07:20:34.944Z,96783.91
2022-09-24T07:23:01.482Z,96785.31
2022-09-24T07:25:28.037Z,96785.56
2022-09-24T07:27:54.622Z,96784.78
2022-09-24T07:30:21.569Z,96788.03
2022-09-24T07:32:50.644Z,96789.25
2022-09-24T07:35:18.940Z,96794.94
2022-09-24T07:37:45.507Z,96792.50
2022-09-24T07:40:12.127Z,96791.50
2022-09-24T07:42:46.915Z,96792.53
2022-09-24T07:45:13.520Z,96803.53
2022-09-24T07:47:40.096Z,96799.06
2022-09-24T07:50:06.827Z,96798.25
2022-09-24T07:52:33.323Z,96797.59
2022-09-24T07:54:59.877Z,96797.63
2022-09-24T07:57:27.343Z,96802.72
2022-09-24T07:59:54.030Z,96793.78
2022-09-24T08:02:20.585Z,96798.63
2022-09-24T08:04:47.183Z,96799.59
2022-09-24T08:07:13.898Z,96804.28
2022-09-24T08:09:40.703Z,96807.50
2022-09-24T08:12:07.829Z,96799.72
2022-09-24T08:14:34.388Z,96812.94
2022-09-24T08:17:02.008Z,96814.34
2022-09-24T08:19:31.015Z,96812.41
2022-09-24T08:21:58.358Z,96804.53
2022-09-24T08:24:24.925Z,96809.09
2022-09-24T08:26:51.478Z,96807.13
2022-09-24T08:29:18.542Z,96802.91
2022-09-24T08:31:45.306Z,96804.56
2022-09-24T08:34:12.027Z,96804.44
2022-09-24T08:36:42.789Z,96800.16
2022-09-24T08:39:10.507Z,96807.63
2022-09-24T08:41:50.235Z,96812.06
2022-09-24T08:44:45.953Z,96808.91
2022-09-24T08:47:24.933Z,96804.88
2022-09-24T08:49:58.670Z,96808.19
2022-09-24T08:52:42.185Z,96804.19
2022-09-24T08:55:43.178Z,96808.47
2022-09-24T08:58:18.757Z,96795.28
2022-09-24T09:01:05.845Z,96797.91
2022-09-24T09:03:49.873Z,96802.06
2022-09-24T09:06:54.171Z,96801.47
2022-09-24T09:09:23.705Z,96802.31
2022-09-24T09:11:52.577Z,96804.44
2022-09-24T09:14:25.333Z,96804.91
2022-09-24T09:17:01.517Z,96805.84
2022-09-24T09:19:33.859Z,96807.81
2022-09-24T09:22:05.431Z,96805.94
2022-09-24T09:24:52.570Z,96810.88
2022-09-24T09:27:20.462Z,96814.00
2022-09-24T09:30:04.141Z,96812.78
2022-09-24T09:32:55.420Z,96811.81
2022-09-24T09:35:42.389Z,96810.13
2022-09-24T09:38:27.600Z,96805.97
2022-09-24T09:41:29.887Z,96809.41
2022-09-24T09:44:02.040Z,96811.72
2022-09-24T09:46:33.448Z,96810.22
2022-09-24T09:49:05.969Z,96813.41
2022-09-24T09:51:37.390Z,96806.50
2022-09-24T09:54:04.477Z,96809.34
2022-09-24T09:56:34.316Z,96805.22
2022-09-24T09:59:13.116Z,96813.78
2022-09-24T10:01:45.290Z,96811.34
2022-09-24T10:04:34.933Z,96815.25
2022-09-24T10:07:06.071Z,96810.69
2022-09-24T10:09:32.923Z,96810.09
2022-09-24T10:12:11.624Z,96806.91
2022-09-24T10:14:38.217Z,96808.00
2022-09-24T10:17:06.506Z,96806.28
2022-09-24T10:19:36.273Z,96811.66
2022-09-24T10:22:24.895Z,96803.97
2022-09-24T10:24:52.698Z,96802.63
2022-09-24T10:27:32.011Z,96806.66
2022-09-24T10:30:17.813Z,96805.75
2022-09-24T10:32:44.500Z,96806.06
2022-09-24T10:35:28.338Z,96801.50
2022-09-24T10:37:59.308Z,96800.19
2022-09-24T10:40:31.511Z,96805.22
2022-09-24T10:43:00.386Z,96797.44
2022-09-24T10:45:56.115Z,96794.78
2022-09-24T10:48:58.700Z,96793.38
2022-09-24T10:51:28.972Z,96796.16
2022-09-24T10:54:20.667Z,96795.63
2022-09-24T10:56:55.690Z,96791.75
2022-09-24T10:59:37.025Z,96791.47
2022-09-24T11:02:09.641Z,96796.22
2022-09-24T11:04:55.733Z,96801.28
2022-09-24T11:08:00.368Z,96794.56
2022-09-24T11:10:55.375Z,96792.00
2022-09-24T11:13:27.854Z,96797.13
2022-09-24T11:16:23.748Z,96798.38
2022-09-24T11:18:56.030Z,96796.38
2022-09-24T11:21:31.599Z,96806.53
2022-09-24T11:24:29.045Z,96800.59
2022-09-24T11:27:19.905Z,96803.75
2022-09-24T11:29:59.831Z,96801.38
2022-09-24T11:33:01.346Z,96791.19
2022-09-24T11:35:46.295Z,96801.78
2022-09-24T11:38:38.491Z,96792.66
2022-09-24T11:41:38.414Z,96792.22
2022-09-24T11:44:25.746Z,96786.97
2022-09-24T11:47:04.374Z,96787.66
2022-09-24T11:50:12.186Z,96788.28
2022-09-24T11:52:48.355Z,96784.91
2022-09-24T11:55:18.860Z,96787.72
2022-09-24T11:57:54.273Z,96776.09
2022-09-24T12:00:21.371Z,96785.84
2022-09-24T12:02:51.304Z,96771.84
2022-09-24T12:05:40.756Z,96777.25
2022-09-24T12:08:12.769Z,96767.88
2022-09-24T12:10:46.970Z,96771.88
2022-09-24T12:13:21.019Z,96769.00
2022-09-24T12:15:47.557Z,96766.91
2022-09-24T12:18:26.710Z,96766.78
2022-09-24T12:20:58.855Z,96766.41
2022-09-24T12:23:29.309Z,96769.38
2022-09-24T12:25:58.153Z,96774.69
2022-09-24T12:28:49.796Z,96770.69
2022-09-24T12:31:39.715Z,96768.91
2022-09-24T12:34:27.489Z,96764.94
2022-09-24T12:37:07.415Z,96773.38
2022-09-24T12:39:42.846Z,96778.22
2022-09-24T12:42:10.105Z,96774.94
2022-09-24T12:44:39.813Z,96776.34
2022-09-24T12:47:16.507Z,96772.50
2022-09-24T12:49:48.613Z,96776.44
2022-09-24T12:52:19.332Z,96782.78
2022-09-24T12:54:46.185Z,96782.78
2022-09-24T12:57:25.491Z,96789.53
2022-09-24T13:00:02.570Z,96782.75
2022-09-24T13:02:34.045Z,96780.69
2022-09-24T13:05:03.781Z,96783.50
2022-09-24T13:07:32.994Z,96780.38
2022-09-24T13:10:17.098Z,96780.97
2022-09-24T13:12:44.716Z,96778.75
2022-09-24T13:15:28.421Z,96769.25
2022-09-24T13:18:24.257Z,96773.34
2022-09-24T13:21:00.818Z,96778.31
2022-09-24T13:23:29.362Z,96776.81
2022-09-24T13:25:57.953Z,96774.59
2022-09-24T13:28:35.782Z,96773.25
2022-09-24T13:31:30.447Z,96778.09
2022-09-24T13:34:04.041Z,96775.56
2022-09-24T13:36:38.620Z,96776.88
2022-09-24T13:39:30.237Z,96776.56
2022-09-24T13:41:59.178Z,96777.53
2022-09-24T13:44:36.345Z,96781.38
2022-09-24T13:47:13.187Z,96778.03
2022-09-24T13:49:43.424Z,96779.66
2022-09-24T13:52:36.113Z,96783.53
2022-09-24T13:55:08.531Z,96790.91
2022-09-24T13:57:46.141Z,96788.94
2022-09-24T14:00:21.601Z,96779.38
2022-09-24T14:03:03.010Z,96784.19
2022-09-24T14:05:32.672Z,96777.31
2022-09-24T14:08:05.883Z,96787.19
2022-09-24T14:10:33.223Z,96793.91
2022-09-24T14:13:21.809Z,96788.97
2022-09-24T14:15:56.006Z,96793.69
2022-09-24T14:18:23.346Z,96786.63
2022-09-24T14:21:14.441Z,96785.28
2022-09-24T14:23:57.179Z,96776.66
2022-09-24T14:26:30.205Z,96790.75
2022-09-24T14:28:58.412Z,96789.84
2022-09-24T14:31:25.071Z,96783.88
2022-09-24T14:33:52.036Z,96784.22
2022-09-24T14:36:19.212Z,96781.56
2022-09-24T14:39:04.140Z,96773.88
2022-09-24T14:41:32.809Z,96781.28
2022-09-24T14:44:06.378Z,96775.09
2022-09-24T14:46:34.940Z,96779.19
2022-09-24T14:49:19.405Z,96783.47
2022-09-24T14:51:57.833Z,96778.78
2022-09-24T14:54:36.710Z,96781.66
2022-09-24T14:57:24.718Z,96773.06
2022-09-24T14:59:52.296Z,96776.72
2022-09-24T15:02:21.894Z,96783.41
2022-09-24T15:04:53.853Z,96778.72
2022-09-24T15:07:28.922Z,96776.19
2022-09-24T15:10:00.003Z,96778.22
2022-09-24T15:12:31.352Z,96776.38
2022-09-24T15:14:59.958Z,96778.63
2022-09-24T15:17:34.470Z,96773.31
2022-09-24T15:20:02.539Z,96780.63
2022-09-24T15:22:30.092Z,96777.38
2022-09-24T15:25:01.496Z,96787.59
2022-09-24T15:27:33.846Z,96792.06
2022-09-24T15:30:02.164Z,96776.06
2022-09-24T15:32:35.189Z,96782.41
2022-09-24T15:35:07.409Z,96777.16
2022-09-24T15:37:34.381Z,96792.88
2022-09-24T15:40:07.403Z,96790.22
2022-09-24T15:42:34.007Z,96788.41
2022-09-24T15:45:00.601Z,96793.97
2022-09-24T15:47:27.575Z,96792.75
2022-09-24T15:49:54.086Z,96795.19
2022-09-24T15:52:26.638Z,96793.41
2022-09-24T15:54:58.271Z,96789.56
2022-09-24T15:57:28.153Z,96783.44
2022-09-24T15:59:55.264Z,96784.69
2022-09-24T16:02:25.936Z,96785.06
2022-09-24T16:04:53.069Z,96782.63
2022-09-24T16:07:19.641Z,96790.81
2022-09-24T16:09:46.210Z,96784.97
2022-09-24T16:12:18.472Z,96791.88
2022-09-24T16:14:45.354Z,96784.75
2022-09-24T16:17:12.410Z,96798.78
2022-09-24T16:19:39.032Z,96788.03
2022-09-24T16:22:05.624Z,96797.63
2022-09-24T16:24:33.300Z,96794.38
2022-09-24T16:27:00.643Z,96786.41
2022-09-24T16:29:27.197Z,96796.41
2022-09-24T16:31:53.752Z,96792.34
2022-09-24T16:34:20.296Z,96795.19
2022-09-24T16:36:47.098Z,96797.44
2022-09-24T16:39:15.764Z,96799.28
2022-09-24T16:41:42.712Z,96792.56
2022-09-24T16:44:11.440Z,96796.00
2022-09-24T16:46:38.008Z,96788.69
2022-09-24T16:49:04.605Z,96801.50
2022-09-24T16:51:31.197Z,96801.09
2022-09-24T16:53:57.796Z,96807.19
2022-09-24T16:56:24.692Z,96802.09
2022-09-24T16:58:52.477Z,96801.09
2022-09-24T17:01:21.236Z,96790.50
2022-09-24T17:03:52.456Z,96798.63
2022-09-24T17:06:20.752Z,96803.91
2022-09-24T17:09:05.802Z,96802.09
2022-09-24T17:11:32.520Z,96800.88
2022-09-24T17:14:00.026Z,96803.09
2022-09-24T17:16:27.250Z,96809.19
2022-09-24T17:18:56.818Z,96804.91
2022-09-24T17:21:23.781Z,96806.34
2022-09-24T17:23:50.725Z,96809.19
2022-09-24T17:26:19.577Z,96809.59
2022-09-24T17:28:47.710Z,96811.63
2022-09-24T17:31:17.487Z,96817.31
2022-09-24T17:33:44.590Z,96811.38
2022-09-24T17:36:12.497Z,96818.91
2022-09-24T17:38:39.290Z,96816.25
2022-09-24T17:41:08.180Z,96811.78
2022-09-24T17:43:35.028Z,96815.44
2022-09-24T17:46:12.913Z,96816.47
2022-09-24T17:48:47.283Z,96829.06
2022-09-24T17:51:22.104Z,96829.06
2022-09-24T17:53:56.016Z,96829.47
2022-09-24T17:56:26.070Z,96828.66
2022-09-24T17:58:55.236Z,96822.91
2022-09-24T18:01:21.784Z,96828.22
2022-09-24T18:03:53.025Z,96823.31
2022-09-24T18:06:19.592Z,96822.72
2022-09-24T18:08:46.403Z,96827.78
2022-09-24T18:11:24.802Z,96825.34
2022-09-24T18:13:52.981Z,96820.06
2022-09-24T18:16:20.991Z,96824.94
2022-09-24T18:18:50.999Z,96826.56
2022-09-24T18:21:19.948Z,96825.56
2022-09-24T18:23:49.235Z,96824.94
2022-09-24T18:26:19.683Z,96823.50
2022-09-24T18:28:46.183Z,96819.25
2022-09-24T18:31:13.158Z,96823.28
2022-09-24T18:33:41.464Z,96828.34
2022-09-24T18:36:10.533Z,96841.94
2022-09-24T18:38:37.380Z,96837.25
2022-09-24T18:41:11.158Z,96847.63
2022-09-24T18:43:37.830Z,96839.47
2022-09-24T18:46:05.629Z,96845.38
2022-09-24T18:48:32.759Z,96841.31
2022-09-24T18:50:59.893Z,96843.94
2022-09-24T18:53:27.028Z,96837.47
2022-09-24T18:55:53.923Z,96845.38
2022-09-24T18:58:20.463Z,96835.81
2022-09-24T19:00:49.822Z,96839.47
2022-09-24T19:03:21.069Z,96836.03
2022-09-24T19:05:48.904Z,96847.41
2022-09-24T19:08:15.649Z,96844.13
2022-09-24T19:10:42.739Z,96843.50
2022-09-24T19:13:09.369Z,96841.88
2022-09-24T19:15:40.050Z,96838.22
2022-09-24T19:18:08.288Z,96833.34
2022-09-24T19:20:42.469Z,96835.16
2022-09-24T19:23:09.978Z,96840.22
2022-09-24T19:25:38.072Z,96842.03
2022-09-24T19:28:06.395Z,96837.38
2022-09-24T19:30:44.895Z,96841.44
2022-09-24T19:33:15.958Z,96844.28
2022-09-24T19:35:52.269Z,96845.09
2022-09-24T19:38:18.784Z,96844.88
2022-09-24T19:40:55.948Z,96846.91
2022-09-24T19:43:22.551Z,96846.72
2022-09-24T19:45:59.373Z,96843.88
2022-09-24T19:48:26.855Z,96843.47
2022-09-24T19:50:54.469Z,96839.00
2022-09-24T19:53:21.363Z,96846.72
2022-09-24T19:55:47.910Z,96841.63
2022-09-24T19:58:15.693Z,96844.28
2022-09-24T20:00:43.106Z,96841.00
2022-09-24T20:03:11.236Z,96843.84
2022-09-24T20:05:38.283Z,96835.72
2022-09-24T20:08:04.858Z,96843.00
2022-09-24T20:10:31.524Z,96841.38
2022-09-24T20:12:58.313Z,96841.78
2022-09-24T20:15:24.862Z,96848.25
2022-09-24T20:17:51.453Z,96838.91
2022-09-24T20:20:18.651Z,96843.38
2022-09-24T20:22:45.214Z,96840.97
2022-09-24T20:25:12.958Z,96840.97
2022-09-24T20:27:51.560Z,96852.72
2022-09-24T20:30:23.537Z,96849.84
2022-09-24T20:32:50.823Z,96854.31
2022-09-24T20:35:17.903Z,96854.13
2022-09-24T20:37:44.794Z,96851.91
2022-09-24T20:40:11.750Z,96858.81
2022-09-24T20:42:38.896Z,96850.91
2022-09-24T20:45:07.093Z,96856.78
2022-09-24T20:47:33.642Z,96861.06
2022-09-24T20:50:00.258Z,96855.16
2022-09-24T20:52:26.822Z,96852.31
2022-09-24T20:54:53.368Z,96862.84
2022-09-24T20:57:19.947Z,96859.22
2022-09-24T20:59:46.467Z,96861.84
2022-09-24T21:02:13.077Z,96859.25
2022-09-24T21:04:39.755Z,96863.69
2022-09-24T21:07:06.323Z,96862.50
2022-09-24T21:09:33.060Z,96862.88
2022-09-24T21:12:01.418Z,96855.97
2022-09-24T21:14:28.919Z,96858.03
2022-09-24T21:16:55.442Z,96858.84
2022-09-24T21:19:22.092Z,96862.13
2022-09-24T21:21:48.607Z,96864.38
2022-09-24T21:24:15.756Z,96867.84
2022-09-24T21:26:42.849Z,96862.16
2022-09-24T21:29:16.773Z,96860.72
2022-09-24T21:31:45.974Z,96868.25
2022-09-24T21:34:13.968Z,96862.97
2022-09-24T21:36:45.735Z,96866.22
2022-09-24T21:39:15.254Z,96868.66
2022-09-24T21:41:42.192Z,96860.13
2022-09-24T21:44:12.211Z,96870.69
2022-09-24T21:46:40.473Z,96865.03
2022-09-24T21:49:07.065Z,96865.41
2022-09-24T21:51:33.586Z,96860.75
2022-09-24T21:54:05.318Z,96865.03
2022-09-24T21:56:33.198Z,96866.91
2022-09-24T21:59:00.011Z,96867.06
2022-09-24T22:01:29.628Z,96865.06
2022-09-24T22:03:58.563Z,96866.91
2022-09-24T22:06:29.880Z,96873.63
2022-09-24T22:08:57.947Z,96872.59
2022-09-24T22:11:27.341Z,96869.75
2022-09-24T22:14:05.838Z,96874.03
2022-09-24T22:16:36.214Z,96866.31
2022-09-24T22:19:05.263Z,96870.41
2022-09-24T22:21:32.480Z,96865.94
2022-09-24T22:23:59.090Z,96862.28
2022-09-24T22:26:29.771Z,96863.28
2022-09-24T22:28:56.848Z,96860.91
2022-09-24T22:31:23.476Z,96863.91
2022-09-24T22:34:08.647Z,96863.91
2022-09-24T22:36:36.114Z,96862.28
2022-09-24T22:39:04.268Z,96856.19
2022-09-24T22:41:32.726Z,96861.91
2022-09-24T22:43:59.442Z,96859.44
2022-09-24T22:46:27.079Z,96856.63
2022-09-24T22:48:55.724Z,96861.06
2022-09-24T22:51:23.369Z,96858.63
2022-09-24T22:53:50.010Z,96872.47
2022-09-24T22:56:19.086Z,96860.25
2022-09-24T22:58:51.114Z,96865.94
2022-09-24T23:01:24.020Z,96855.38
2022-09-24T23:03:51.937Z,96861.06
2022-09-24T23:06:19.139Z,96859.88
2022-09-24T23:08:45.731Z,96863.91
2022-09-24T23:11:13.677Z,96864.50
2022-09-24T23:13:41.946Z,96861.03
2022-09-24T23:16:17.595Z,96864.31
2022-09-24T23:18:46.177Z,96859.03
2022-09-24T23:21:15.765Z,96857.38
2022-09-24T23:23:43.303Z,96852.09
2022-09-24T23:26:16.805Z,96855.97
2022-09-24T23:28:44.412Z,96857.81
2022-09-24T23:31:13.127Z,96863.69
2022-09-24T23:33:40.545Z,96860.03
2022-09-24T23:36:08.766Z,96851.06
2022-09-24T23:38:35.769Z,96849.25
2022-09-24T23:41:03.612Z,96856.56
2022-09-24T23:43:30.646Z,96860.63
2022-09-24T23:45:57.527Z,96855.34
2022-09-24T23:48:24.564Z,96855.75
2022-09-24T23:50:51.375Z,96854.72
2022-09-24T23:53:18.940Z,96856.56
2022-09-24T23:55:47.125Z,96855.75
2022-09-24T23:58:18.053Z,96856.16
